sensor_id;sensor_type;location;lat;lon;timestamp;P1;P2;P0
73565;PMS5003;61846;52.970;-3.168;2024-03-25T00:01:11;7;6;
73565;PMS5003;61846;52.970;-3.168;2024-03-25T00:03:37;8;6;
73565;PMS5003;61846;52.970;-3.168;2024-03-25T00:06:02;8;8;
73565;PMS5003;61846;52.970;-3.168;2024-03-25T00:08:28;11;8;
73565;PMS5003;61846;52.970;-3.168;2024-03-25T00:10:53;10;6;
73565;PMS5003;61846;52.970;-3.168;2024-03-25T00:13:19;4;4;
73565;PMS5003;61846;52.970;-3.168;2024-03-25T00:15:44;3;3;
73565;PMS5003;61846;52.970;-3.168;2024-03-25T00:18:10;7;5;
73565;PMS5003;61846;52.970;-3.168;2024-03-25T00:20:35;6;4;
73565;PMS5003;61846;52.970;-3.168;2024-03-25T00:23:01;10;7;
73565;PMS5003;61846;52.970;-3.168;2024-03-25T00:25:27;4;3;
73565;PMS5003;61846;52.970;-3.168;2024-03-25T00:27:52;5;5;
73565;PMS5003;61846;52.970;-3.168;2024-03-25T00:30:18;9;8;
73565;PMS5003;61846;52.970;-3.168;2024-03-25T00:32:43;6;6;
73565;PMS5003;61846;52.970;-3.168;2024-03-25T00:35:09;5;5;
73565;PMS5003;61846;52.970;-3.168;2024-03-25T00:37:35;3;3;
73565;PMS5003;61846;52.970;-3.168;2024-03-25T00:40:00;7;6;
73565;PMS5003;61846;52.970;-3.168;2024-03-25T00:42:25;8;6;
73565;PMS5003;61846;52.970;-3.168;2024-03-25T00:44:51;6;6;
73565;PMS5003;61846;52.970;-3.168;2024-03-25T00:47:17;8;5;
73565;PMS5003;61846;52.970;-3.168;2024-03-25T00:49:42;11;6;
73565;PMS5003;61846;52.970;-3.168;2024-03-25T00:52:08;6;3;
73565;PMS5003;61846;52.970;-3.168;2024-03-25T00:54:34;7;6;
73565;PMS5003;61846;52.970;-3.168;2024-03-25T00:56:59;3;3;
73565;PMS5003;61846;52.970;-3.168;2024-03-25T00:59:25;6;4;
73565;PMS5003;61846;52.970;-3.168;2024-03-25T01:01:51;7;6;
73565;PMS5003;61846;52.970;-3.168;2024-03-25T01:04:16;9;6;
73565;PMS5003;61846;52.970;-3.168;2024-03-25T01:06:42;6;5;
73565;PMS5003;61846;52.970;-3.168;2024-03-25T01:09:08;2;2;
73565;PMS5003;61846;52.970;-3.168;2024-03-25T01:11:33;7;5;
73565;PMS5003;61846;52.970;-3.168;2024-03-25T01:13:59;4;4;
73565;PMS5003;61846;52.970;-3.168;2024-03-25T01:16:24;7;5;
73565;PMS5003;61846;52.970;-3.168;2024-03-25T01:18:49;8;5;
73565;PMS5003;61846;52.970;-3.168;2024-03-25T01:21:15;4;2;
73565;PMS5003;61846;52.970;-3.168;2024-03-25T01:23:41;7;4;
73565;PMS5003;61846;52.970;-3.168;2024-03-25T01:26:06;10;7;
73565;PMS5003;61846;52.970;-3.168;2024-03-25T01:28:32;8;4;
73565;PMS5003;61846;52.970;-3.168;2024-03-25T01:30:58;4;4;
73565;PMS5003;61846;52.970;-3.168;2024-03-25T01:33:23;4;4;
73565;PMS5003;61846;52.970;-3.168;2024-03-25T01:35:49;6;4;
73565;PMS5003;61846;52.970;-3.168;2024-03-25T01:38:15;8;6;
73565;PMS5003;61846;52.970;-3.168;2024-03-25T01:40:40;5;5;
73565;PMS5003;61846;52.970;-3.168;2024-03-25T01:43:06;6;3;
73565;PMS5003;61846;52.970;-3.168;2024-03-25T01:45:32;3;3;
73565;PMS5003;61846;52.970;-3.168;2024-03-25T01:47:57;3;3;
73565;PMS5003;61846;52.970;-3.168;2024-03-25T01:50:23;6;3;
73565;PMS5003;61846;52.970;-3.168;2024-03-25T01:52:48;6;4;
73565;PMS5003;61846;52.970;-3.168;2024-03-25T01:55:15;6;5;
73565;PMS5003;61846;52.970;-3.168;2024-03-25T01:57:40;5;3;
73565;PMS5003;61846;52.970;-3.168;2024-03-25T02:00:07;4;3;
73565;PMS5003;61846;52.970;-3.168;2024-03-25T02:02:31;6;3;
73565;PMS5003;61846;52.970;-3.168;2024-03-25T02:04:57;9;5;
73565;PMS5003;61846;52.970;-3.168;2024-03-25T02:07:22;4;4;
73565;PMS5003;61846;52.970;-3.168;2024-03-25T02:09:48;8;6;
73565;PMS5003;61846;52.970;-3.168;2024-03-25T02:12:14;6;4;
73565;PMS5003;61846;52.970;-3.168;2024-03-25T02:14:40;8;4;
73565;PMS5003;61846;52.970;-3.168;2024-03-25T02:17:05;3;3;
73565;PMS5003;61846;52.970;-3.168;2024-03-25T02:19:30;3;3;
73565;PMS5003;61846;52.970;-3.168;2024-03-25T02:21:56;5;4;
73565;PMS5003;61846;52.970;-3.168;2024-03-25T02:24:21;9;6;
73565;PMS5003;61846;52.970;-3.168;2024-03-25T02:26:47;8;4;
73565;PMS5003;61846;52.970;-3.168;2024-03-25T02:29:12;6;5;
73565;PMS5003;61846;52.970;-3.168;2024-03-25T02:31:38;10;6;
73565;PMS5003;61846;52.970;-3.168;2024-03-25T02:34:04;6;5;
73565;PMS5003;61846;52.970;-3.168;2024-03-25T02:36:29;4;4;
73565;PMS5003;61846;52.970;-3.168;2024-03-25T02:38:55;8;7;
73565;PMS5003;61846;52.970;-3.168;2024-03-25T02:41:20;6;6;
73565;PMS5003;61846;52.970;-3.168;2024-03-25T02:43:46;6;5;
73565;PMS5003;61846;52.970;-3.168;2024-03-25T02:46:12;8;6;
73565;PMS5003;61846;52.970;-3.168;2024-03-25T02:48:37;5;4;
73565;PMS5003;61846;52.970;-3.168;2024-03-25T02:51:03;9;7;
73565;PMS5003;61846;52.970;-3.168;2024-03-25T02:53:28;7;7;
73565;PMS5003;61846;52.970;-3.168;2024-03-25T02:55:54;4;4;
73565;PMS5003;61846;52.970;-3.168;2024-03-25T02:58:20;4;4;
73565;PMS5003;61846;52.970;-3.168;2024-03-25T03:00:45;8;4;
73565;PMS5003;61846;52.970;-3.168;2024-03-25T03:03:11;5;3;
73565;PMS5003;61846;52.970;-3.168;2024-03-25T03:05:37;5;5;
73565;PMS5003;61846;52.970;-3.168;2024-03-25T03:08:02;3;3;
73565;PMS5003;61846;52.970;-3.168;2024-03-25T03:10:28;4;4;
73565;PMS5003;61846;52.970;-3.168;2024-03-25T03:12:54;4;4;
73565;PMS5003;61846;52.970;-3.168;2024-03-25T03:15:19;4;2;
73565;PMS5003;61846;52.970;-3.168;2024-03-25T03:17:44;2;2;
73565;PMS5003;61846;52.970;-3.168;2024-03-25T03:20:10;4;4;
73565;PMS5003;61846;52.970;-3.168;2024-03-25T03:22:36;3;3;
73565;PMS5003;61846;52.970;-3.168;2024-03-25T03:25:01;4;4;
73565;PMS5003;61846;52.970;-3.168;2024-03-25T03:27:27;3;3;
73565;PMS5003;61846;52.970;-3.168;2024-03-25T03:29:53;3;3;
73565;PMS5003;61846;52.970;-3.168;2024-03-25T03:32:18;3;3;
73565;PMS5003;61846;52.970;-3.168;2024-03-25T03:34:44;2;2;
73565;PMS5003;61846;52.970;-3.168;2024-03-25T03:37:10;5;3;
73565;PMS5003;61846;52.970;-3.168;2024-03-25T03:39:35;3;3;
73565;PMS5003;61846;52.970;-3.168;2024-03-25T03:42:01;2;2;
73565;PMS5003;61846;52.970;-3.168;2024-03-25T03:44:27;2;2;
73565;PMS5003;61846;52.970;-3.168;2024-03-25T03:46:52;2;2;
73565;PMS5003;61846;52.970;-3.168;2024-03-25T03:49:18;3;3;
73565;PMS5003;61846;52.970;-3.168;2024-03-25T03:51:44;3;3;
73565;PMS5003;61846;52.970;-3.168;2024-03-25T03:54:09;3;3;
73565;PMS5003;61846;52.970;-3.168;2024-03-25T03:56:34;10;4;
73565;PMS5003;61846;52.970;-3.168;2024-03-25T03:58:59;2;2;
73565;PMS5003;61846;52.970;-3.168;2024-03-25T04:01:25;3;3;
73565;PMS5003;61846;52.970;-3.168;2024-03-25T04:03:51;5;5;
73565;PMS5003;61846;52.970;-3.168;2024-03-25T04:06:16;2;2;
73565;PMS5003;61846;52.970;-3.168;2024-03-25T04:08:42;3;3;
73565;PMS5003;61846;52.970;-3.168;2024-03-25T04:11:08;4;4;
73565;PMS5003;61846;52.970;-3.168;2024-03-25T04:13:34;6;5;
73565;PMS5003;61846;52.970;-3.168;2024-03-25T04:16:00;3;3;
73565;PMS5003;61846;52.970;-3.168;2024-03-25T04:18:25;5;5;
73565;PMS5003;61846;52.970;-3.168;2024-03-25T04:20:51;5;4;
73565;PMS5003;61846;52.970;-3.168;2024-03-25T04:23:16;4;4;
73565;PMS5003;61846;52.970;-3.168;2024-03-25T04:25:42;3;3;
73565;PMS5003;61846;52.970;-3.168;2024-03-25T04:28:07;6;4;
73565;PMS5003;61846;52.970;-3.168;2024-03-25T04:30:33;4;4;
73565;PMS5003;61846;52.970;-3.168;2024-03-25T04:32:59;5;4;
73565;PMS5003;61846;52.970;-3.168;2024-03-25T04:35:24;3;3;
73565;PMS5003;61846;52.970;-3.168;2024-03-25T04:37:50;3;3;
73565;PMS5003;61846;52.970;-3.168;2024-03-25T04:40:16;6;4;
73565;PMS5003;61846;52.970;-3.168;2024-03-25T04:42:41;2;2;
73565;PMS5003;61846;52.970;-3.168;2024-03-25T04:45:07;4;3;
73565;PMS5003;61846;52.970;-3.168;2024-03-25T04:47:33;3;3;
73565;PMS5003;61846;52.970;-3.168;2024-03-25T04:49:59;5;5;
73565;PMS5003;61846;52.970;-3.168;2024-03-25T04:52:24;7;5;
73565;PMS5003;61846;52.970;-3.168;2024-03-25T04:54:50;4;4;
73565;PMS5003;61846;52.970;-3.168;2024-03-25T04:57:16;9;4;
73565;PMS5003;61846;52.970;-3.168;2024-03-25T04:59:41;7;5;
73565;PMS5003;61846;52.970;-3.168;2024-03-25T05:02:07;4;4;
73565;PMS5003;61846;52.970;-3.168;2024-03-25T05:04:33;6;6;
73565;PMS5003;61846;52.970;-3.168;2024-03-25T05:06:58;6;5;
73565;PMS5003;61846;52.970;-3.168;2024-03-25T05:09:24;6;5;
73565;PMS5003;61846;52.970;-3.168;2024-03-25T05:11:50;5;4;
73565;PMS5003;61846;52.970;-3.168;2024-03-25T05:14:15;3;3;
73565;PMS5003;61846;52.970;-3.168;2024-03-25T05:16:41;4;4;
73565;PMS5003;61846;52.970;-3.168;2024-03-25T05:19:07;4;4;
73565;PMS5003;61846;52.970;-3.168;2024-03-25T05:21:32;7;5;
73565;PMS5003;61846;52.970;-3.168;2024-03-25T05:23:58;3;3;
73565;PMS5003;61846;52.970;-3.168;2024-03-25T05:26:23;5;3;
73565;PMS5003;61846;52.970;-3.168;2024-03-25T05:28:52;6;6;
73565;PMS5003;61846;52.970;-3.168;2024-03-25T05:31:14;4;4;
73565;PMS5003;61846;52.970;-3.168;2024-03-25T05:33:40;5;5;
73565;PMS5003;61846;52.970;-3.168;2024-03-25T05:36:06;9;6;
73565;PMS5003;61846;52.970;-3.168;2024-03-25T05:38:31;9;6;
73565;PMS5003;61846;52.970;-3.168;2024-03-25T05:40:57;10;7;
73565;PMS5003;61846;52.970;-3.168;2024-03-25T05:43:22;10;9;
73565;PMS5003;61846;52.970;-3.168;2024-03-25T05:45:51;9;7;
73565;PMS5003;61846;52.970;-3.168;2024-03-25T05:48:13;11;8;
73565;PMS5003;61846;52.970;-3.168;2024-03-25T05:50:39;7;7;
73565;PMS5003;61846;52.970;-3.168;2024-03-25T05:53:05;10;10;
73565;PMS5003;61846;52.970;-3.168;2024-03-25T05:55:30;12;9;
73565;PMS5003;61846;52.970;-3.168;2024-03-25T05:57:56;8;8;
73565;PMS5003;61846;52.970;-3.168;2024-03-25T06:00:22;7;7;
73565;PMS5003;61846;52.970;-3.168;2024-03-25T06:02:47;9;9;
73565;PMS5003;61846;52.970;-3.168;2024-03-25T06:05:13;7;6;
73565;PMS5003;61846;52.970;-3.168;2024-03-25T06:07:39;10;10;
73565;PMS5003;61846;52.970;-3.168;2024-03-25T06:10:05;10;10;
73565;PMS5003;61846;52.970;-3.168;2024-03-25T06:12:30;8;6;
73565;PMS5003;61846;52.970;-3.168;2024-03-25T06:14:56;12;10;
73565;PMS5003;61846;52.970;-3.168;2024-03-25T06:17:21;6;6;
73565;PMS5003;61846;52.970;-3.168;2024-03-25T06:19:47;11;9;
73565;PMS5003;61846;52.970;-3.168;2024-03-25T06:22:13;10;10;
73565;PMS5003;61846;52.970;-3.168;2024-03-25T06:24:38;9;7;
73565;PMS5003;61846;52.970;-3.168;2024-03-25T06:27:04;8;8;
73565;PMS5003;61846;52.970;-3.168;2024-03-25T06:29:30;9;8;
73565;PMS5003;61846;52.970;-3.168;2024-03-25T06:31:55;7;6;
73565;PMS5003;61846;52.970;-3.168;2024-03-25T06:34:21;11;10;
73565;PMS5003;61846;52.970;-3.168;2024-03-25T06:36:47;8;6;
73565;PMS5003;61846;52.970;-3.168;2024-03-25T06:39:12;8;7;
73565;PMS5003;61846;52.970;-3.168;2024-03-25T06:41:38;8;8;
73565;PMS5003;61846;52.970;-3.168;2024-03-25T06:44:04;8;8;
73565;PMS5003;61846;52.970;-3.168;2024-03-25T06:46:29;7;7;
73565;PMS5003;61846;52.970;-3.168;2024-03-25T06:48:55;7;5;
73565;PMS5003;61846;52.970;-3.168;2024-03-25T06:51:20;8;8;
73565;PMS5003;61846;52.970;-3.168;2024-03-25T06:53:46;5;5;
73565;PMS5003;61846;52.970;-3.168;2024-03-25T06:56:12;5;5;
73565;PMS5003;61846;52.970;-3.168;2024-03-25T06:58:37;5;4;
73565;PMS5003;61846;52.970;-3.168;2024-03-25T07:01:05;6;6;
73565;PMS5003;61846;52.970;-3.168;2024-03-25T07:03:29;7;4;
73565;PMS5003;61846;52.970;-3.168;2024-03-25T07:05:54;4;4;
73565;PMS5003;61846;52.970;-3.168;2024-03-25T07:08:20;5;5;
73565;PMS5003;61846;52.970;-3.168;2024-03-25T07:10:46;3;3;
73565;PMS5003;61846;52.970;-3.168;2024-03-25T07:13:12;6;6;
73565;PMS5003;61846;52.970;-3.168;2024-03-25T07:15:37;7;7;
73565;PMS5003;61846;52.970;-3.168;2024-03-25T07:18:03;5;5;
73565;PMS5003;61846;52.970;-3.168;2024-03-25T07:20:29;5;5;
73565;PMS5003;61846;52.970;-3.168;2024-03-25T07:22:54;24;17;
73565;PMS5003;61846;52.970;-3.168;2024-03-25T07:25:20;6;5;
73565;PMS5003;61846;52.970;-3.168;2024-03-25T07:27:45;8;8;
73565;PMS5003;61846;52.970;-3.168;2024-03-25T07:30:11;8;7;
73565;PMS5003;61846;52.970;-3.168;2024-03-25T07:32:36;6;4;
73565;PMS5003;61846;52.970;-3.168;2024-03-25T07:35:02;8;8;
73565;PMS5003;61846;52.970;-3.168;2024-03-25T07:37:27;7;7;
73565;PMS5003;61846;52.970;-3.168;2024-03-25T07:39:53;9;8;
73565;PMS5003;61846;52.970;-3.168;2024-03-25T07:42:19;5;5;
73565;PMS5003;61846;52.970;-3.168;2024-03-25T07:44:45;9;7;
73565;PMS5003;61846;52.970;-3.168;2024-03-25T07:47:10;6;6;
73565;PMS5003;61846;52.970;-3.168;2024-03-25T07:49:36;10;8;
73565;PMS5003;61846;52.970;-3.168;2024-03-25T07:52:01;8;7;
73565;PMS5003;61846;52.970;-3.168;2024-03-25T07:54:27;8;7;
73565;PMS5003;61846;52.970;-3.168;2024-03-25T07:56:53;9;8;
73565;PMS5003;61846;52.970;-3.168;2024-03-25T07:59:18;9;8;
73565;PMS5003;61846;52.970;-3.168;2024-03-25T08:01:43;10;7;
73565;PMS5003;61846;52.970;-3.168;2024-03-25T08:04:09;7;7;
73565;PMS5003;61846;52.970;-3.168;2024-03-25T08:06:35;6;6;
73565;PMS5003;61846;52.970;-3.168;2024-03-25T08:09:00;7;7;
73565;PMS5003;61846;52.970;-3.168;2024-03-25T08:11:26;6;6;
73565;PMS5003;61846;52.970;-3.168;2024-03-25T08:13:52;8;8;
73565;PMS5003;61846;52.970;-3.168;2024-03-25T08:16:17;8;7;
73565;PMS5003;61846;52.970;-3.168;2024-03-25T08:18:43;7;7;
73565;PMS5003;61846;52.970;-3.168;2024-03-25T08:21:08;10;8;
73565;PMS5003;61846;52.970;-3.168;2024-03-25T08:23:34;9;7;
73565;PMS5003;61846;52.970;-3.168;2024-03-25T08:26:00;11;8;
73565;PMS5003;61846;52.970;-3.168;2024-03-25T08:28:25;13;9;
73565;PMS5003;61846;52.970;-3.168;2024-03-25T08:30:51;9;9;
73565;PMS5003;61846;52.970;-3.168;2024-03-25T08:33:16;8;8;
73565;PMS5003;61846;52.970;-3.168;2024-03-25T08:35:42;12;10;
73565;PMS5003;61846;52.970;-3.168;2024-03-25T08:38:08;7;7;
73565;PMS5003;61846;52.970;-3.168;2024-03-25T08:40:34;10;10;
73565;PMS5003;61846;52.970;-3.168;2024-03-25T08:42:59;7;7;
73565;PMS5003;61846;52.970;-3.168;2024-03-25T08:45:24;10;9;
73565;PMS5003;61846;52.970;-3.168;2024-03-25T08:47:50;12;11;
73565;PMS5003;61846;52.970;-3.168;2024-03-25T08:50:16;10;10;
73565;PMS5003;61846;52.970;-3.168;2024-03-25T08:52:41;9;9;
73565;PMS5003;61846;52.970;-3.168;2024-03-25T08:55:06;9;8;
73565;PMS5003;61846;52.970;-3.168;2024-03-25T08:57:32;9;8;
73565;PMS5003;61846;52.970;-3.168;2024-03-25T08:59:57;7;6;
73565;PMS5003;61846;52.970;-3.168;2024-03-25T09:02:23;8;7;
73565;PMS5003;61846;52.970;-3.168;2024-03-25T09:04:49;6;6;
73565;PMS5003;61846;52.970;-3.168;2024-03-25T09:07:14;11;11;
73565;PMS5003;61846;52.970;-3.168;2024-03-25T09:09:40;13;10;
73565;PMS5003;61846;52.970;-3.168;2024-03-25T09:12:06;11;9;
73565;PMS5003;61846;52.970;-3.168;2024-03-25T09:14:30;14;7;
73565;PMS5003;61846;52.970;-3.168;2024-03-25T09:16:56;7;6;
73565;PMS5003;61846;52.970;-3.168;2024-03-25T09:19:22;8;6;
73565;PMS5003;61846;52.970;-3.168;2024-03-25T09:21:47;4;4;
73565;PMS5003;61846;52.970;-3.168;2024-03-25T09:24:13;5;5;
73565;PMS5003;61846;52.970;-3.168;2024-03-25T09:26:39;5;5;
73565;PMS5003;61846;52.970;-3.168;2024-03-25T09:29:04;6;6;
73565;PMS5003;61846;52.970;-3.168;2024-03-25T09:31:30;5;5;
73565;PMS5003;61846;52.970;-3.168;2024-03-25T09:33:56;5;5;
73565;PMS5003;61846;52.970;-3.168;2024-03-25T09:36:21;5;5;
73565;PMS5003;61846;52.970;-3.168;2024-03-25T09:38:47;5;5;
73565;PMS5003;61846;52.970;-3.168;2024-03-25T09:41:12;3;3;
73565;PMS5003;61846;52.970;-3.168;2024-03-25T09:43:40;5;5;
73565;PMS5003;61846;52.970;-3.168;2024-03-25T09:46:04;3;3;
73565;PMS5003;61846;52.970;-3.168;2024-03-25T09:48:29;3;3;
73565;PMS5003;61846;52.970;-3.168;2024-03-25T09:50:55;2;2;
73565;PMS5003;61846;52.970;-3.168;2024-03-25T09:53:20;6;4;
73565;PMS5003;61846;52.970;-3.168;2024-03-25T09:55:46;2;2;
73565;PMS5003;61846;52.970;-3.168;2024-03-25T09:58:12;8;5;
73565;PMS5003;61846;52.970;-3.168;2024-03-25T10:00:37;1;1;
73565;PMS5003;61846;52.970;-3.168;2024-03-25T10:03:03;2;2;
73565;PMS5003;61846;52.970;-3.168;2024-03-25T10:05:28;1;1;
73565;PMS5003;61846;52.970;-3.168;2024-03-25T10:07:54;2;2;
73565;PMS5003;61846;52.970;-3.168;2024-03-25T10:10:20;2;2;
73565;PMS5003;61846;52.970;-3.168;2024-03-25T10:12:46;4;3;
73565;PMS5003;61846;52.970;-3.168;2024-03-25T10:15:15;2;2;
73565;PMS5003;61846;52.970;-3.168;2024-03-25T10:17:37;2;2;
73565;PMS5003;61846;52.970;-3.168;2024-03-25T10:20:02;0;0;
73565;PMS5003;61846;52.970;-3.168;2024-03-25T10:22:28;2;0;
73565;PMS5003;61846;52.970;-3.168;2024-03-25T10:24:53;1;1;
73565;PMS5003;61846;52.970;-3.168;2024-03-25T10:27:19;2;2;
73565;PMS5003;61846;52.970;-3.168;2024-03-25T10:29:44;3;2;
73565;PMS5003;61846;52.970;-3.168;2024-03-25T10:32:10;1;1;
73565;PMS5003;61846;52.970;-3.168;2024-03-25T10:34:35;0;0;
73565;PMS5003;61846;52.970;-3.168;2024-03-25T10:37:01;3;2;
73565;PMS5003;61846;52.970;-3.168;2024-03-25T10:39:27;1;1;
73565;PMS5003;61846;52.970;-3.168;2024-03-25T10:41:55;3;3;
73565;PMS5003;61846;52.970;-3.168;2024-03-25T10:44:18;1;1;
73565;PMS5003;61846;52.970;-3.168;2024-03-25T10:46:44;1;1;
73565;PMS5003;61846;52.970;-3.168;2024-03-25T10:49:15;0;0;
73565;PMS5003;61846;52.970;-3.168;2024-03-25T10:51:35;1;1;
73565;PMS5003;61846;52.970;-3.168;2024-03-25T10:54:00;2;2;
73565;PMS5003;61846;52.970;-3.168;2024-03-25T10:56:26;2;2;
73565;PMS5003;61846;52.970;-3.168;2024-03-25T10:58:52;2;2;
73565;PMS5003;61846;52.970;-3.168;2024-03-25T11:01:17;2;2;
73565;PMS5003;61846;52.970;-3.168;2024-03-25T11:03:43;3;2;
73565;PMS5003;61846;52.970;-3.168;2024-03-25T11:06:08;2;2;
73565;PMS5003;61846;52.970;-3.168;2024-03-25T11:08:34;3;3;
73565;PMS5003;61846;52.970;-3.168;2024-03-25T11:11:00;2;2;
73565;PMS5003;61846;52.970;-3.168;2024-03-25T11:13:26;2;2;
73565;PMS5003;61846;52.970;-3.168;2024-03-25T11:15:51;1;1;
73565;PMS5003;61846;52.970;-3.168;2024-03-25T11:18:17;2;2;
73565;PMS5003;61846;52.970;-3.168;2024-03-25T11:20:42;2;2;
73565;PMS5003;61846;52.970;-3.168;2024-03-25T11:23:08;2;1;
73565;PMS5003;61846;52.970;-3.168;2024-03-25T11:25:33;2;2;
73565;PMS5003;61846;52.970;-3.168;2024-03-25T11:27:59;2;2;
73565;PMS5003;61846;52.970;-3.168;2024-03-25T11:30:24;3;2;
73565;PMS5003;61846;52.970;-3.168;2024-03-25T11:32:51;2;2;
73565;PMS5003;61846;52.970;-3.168;2024-03-25T11:35:16;1;1;
73565;PMS5003;61846;52.970;-3.168;2024-03-25T11:37:42;2;2;
73565;PMS5003;61846;52.970;-3.168;2024-03-25T11:40:07;3;3;
73565;PMS5003;61846;52.970;-3.168;2024-03-25T11:42:33;2;2;
73565;PMS5003;61846;52.970;-3.168;2024-03-25T11:44:59;6;3;
73565;PMS5003;61846;52.970;-3.168;2024-03-25T11:47:24;5;3;
73565;PMS5003;61846;52.970;-3.168;2024-03-25T11:49:49;3;1;
73565;PMS5003;61846;52.970;-3.168;2024-03-25T11:52:15;2;2;
73565;PMS5003;61846;52.970;-3.168;2024-03-25T11:54:40;3;3;
73565;PMS5003;61846;52.970;-3.168;2024-03-25T11:57:06;1;1;
73565;PMS5003;61846;52.970;-3.168;2024-03-25T11:59:32;3;3;
73565;PMS5003;61846;52.970;-3.168;2024-03-25T12:01:57;1;1;
73565;PMS5003;61846;52.970;-3.168;2024-03-25T12:04:23;1;1;
73565;PMS5003;61846;52.970;-3.168;2024-03-25T12:06:49;3;3;
73565;PMS5003;61846;52.970;-3.168;2024-03-25T12:09:14;3;2;
73565;PMS5003;61846;52.970;-3.168;2024-03-25T12:11:40;6;5;
73565;PMS5003;61846;52.970;-3.168;2024-03-25T12:14:05;6;6;
73565;PMS5003;61846;52.970;-3.168;2024-03-25T12:16:31;5;2;
73565;PMS5003;61846;52.970;-3.168;2024-03-25T12:18:56;3;3;
73565;PMS5003;61846;52.970;-3.168;2024-03-25T12:21:22;2;2;
73565;PMS5003;61846;52.970;-3.168;2024-03-25T12:23:48;5;4;
73565;PMS5003;61846;52.970;-3.168;2024-03-25T12:26:13;6;3;
73565;PMS5003;61846;52.970;-3.168;2024-03-25T12:28:39;3;3;
73565;PMS5003;61846;52.970;-3.168;2024-03-25T12:31:07;3;3;
73565;PMS5003;61846;52.970;-3.168;2024-03-25T12:33:30;2;2;
73565;PMS5003;61846;52.970;-3.168;2024-03-25T12:35:56;3;3;
73565;PMS5003;61846;52.970;-3.168;2024-03-25T12:38:22;3;3;
73565;PMS5003;61846;52.970;-3.168;2024-03-25T12:40:47;6;4;
73565;PMS5003;61846;52.970;-3.168;2024-03-25T12:43:13;4;4;
73565;PMS5003;61846;52.970;-3.168;2024-03-25T12:45:38;6;5;
73565;PMS5003;61846;52.970;-3.168;2024-03-25T12:48:04;4;4;
73565;PMS5003;61846;52.970;-3.168;2024-03-25T12:50:29;3;3;
73565;PMS5003;61846;52.970;-3.168;2024-03-25T12:52:55;2;2;
73565;PMS5003;61846;52.970;-3.168;2024-03-25T12:55:20;4;4;
73565;PMS5003;61846;52.970;-3.168;2024-03-25T12:57:46;8;5;
73565;PMS5003;61846;52.970;-3.168;2024-03-25T13:00:12;6;4;
73565;PMS5003;61846;52.970;-3.168;2024-03-25T13:02:37;4;3;
73565;PMS5003;61846;52.970;-3.168;2024-03-25T13:05:03;5;5;
73565;PMS5003;61846;52.970;-3.168;2024-03-25T13:07:28;5;4;
73565;PMS5003;61846;52.970;-3.168;2024-03-25T13:09:54;7;7;
73565;PMS5003;61846;52.970;-3.168;2024-03-25T13:12:19;7;5;
73565;PMS5003;61846;52.970;-3.168;2024-03-25T13:14:45;5;5;
73565;PMS5003;61846;52.970;-3.168;2024-03-25T13:17:10;4;4;
73565;PMS5003;61846;52.970;-3.168;2024-03-25T13:19:36;7;5;
73565;PMS5003;61846;52.970;-3.168;2024-03-25T13:22:01;6;4;
73565;PMS5003;61846;52.970;-3.168;2024-03-25T13:24:26;7;6;
73565;PMS5003;61846;52.970;-3.168;2024-03-25T13:26:52;13;6;
73565;PMS5003;61846;52.970;-3.168;2024-03-25T13:29:18;7;5;
73565;PMS5003;61846;52.970;-3.168;2024-03-25T13:31:43;9;6;
73565;PMS5003;61846;52.970;-3.168;2024-03-25T13:34:09;5;4;
73565;PMS5003;61846;52.970;-3.168;2024-03-25T13:36:34;5;5;
73565;PMS5003;61846;52.970;-3.168;2024-03-25T13:39:00;6;4;
73565;PMS5003;61846;52.970;-3.168;2024-03-25T13:41:26;5;5;
73565;PMS5003;61846;52.970;-3.168;2024-03-25T13:43:52;8;6;
73565;PMS5003;61846;52.970;-3.168;2024-03-25T13:46:17;6;6;
73565;PMS5003;61846;52.970;-3.168;2024-03-25T13:48:43;6;5;
73565;PMS5003;61846;52.970;-3.168;2024-03-25T13:51:08;8;5;
73565;PMS5003;61846;52.970;-3.168;2024-03-25T13:53:34;9;5;
73565;PMS5003;61846;52.970;-3.168;2024-03-25T13:55:59;8;6;
73565;PMS5003;61846;52.970;-3.168;2024-03-25T13:58:25;7;5;
73565;PMS5003;61846;52.970;-3.168;2024-03-25T14:00:50;13;6;
73565;PMS5003;61846;52.970;-3.168;2024-03-25T14:03:16;10;8;
73565;PMS5003;61846;52.970;-3.168;2024-03-25T14:05:41;6;5;
73565;PMS5003;61846;52.970;-3.168;2024-03-25T14:08:07;9;7;
73565;PMS5003;61846;52.970;-3.168;2024-03-25T14:10:32;8;7;
73565;PMS5003;61846;52.970;-3.168;2024-03-25T14:12:58;6;5;
73565;PMS5003;61846;52.970;-3.168;2024-03-25T14:15:23;9;9;
73565;PMS5003;61846;52.970;-3.168;2024-03-25T14:17:49;6;6;
73565;PMS5003;61846;52.970;-3.168;2024-03-25T14:20:15;8;7;
73565;PMS5003;61846;52.970;-3.168;2024-03-25T14:22:40;9;8;
73565;PMS5003;61846;52.970;-3.168;2024-03-25T14:25:06;8;6;
73565;PMS5003;61846;52.970;-3.168;2024-03-25T14:27:31;7;5;
73565;PMS5003;61846;52.970;-3.168;2024-03-25T14:29:57;5;4;
73565;PMS5003;61846;52.970;-3.168;2024-03-25T14:32:23;6;6;
73565;PMS5003;61846;52.970;-3.168;2024-03-25T14:34:48;7;6;
73565;PMS5003;61846;52.970;-3.168;2024-03-25T14:37:14;9;4;
73565;PMS5003;61846;52.970;-3.168;2024-03-25T14:39:39;4;4;
73565;PMS5003;61846;52.970;-3.168;2024-03-25T14:42:05;10;7;
73565;PMS5003;61846;52.970;-3.168;2024-03-25T14:44:30;6;6;
73565;PMS5003;61846;52.970;-3.168;2024-03-25T14:46:56;7;7;
73565;PMS5003;61846;52.970;-3.168;2024-03-25T14:49:22;8;7;
73565;PMS5003;61846;52.970;-3.168;2024-03-25T14:51:47;6;5;
73565;PMS5003;61846;52.970;-3.168;2024-03-25T14:54:13;7;6;
73565;PMS5003;61846;52.970;-3.168;2024-03-25T14:56:38;8;6;
73565;PMS5003;61846;52.970;-3.168;2024-03-25T14:59:04;11;8;
73565;PMS5003;61846;52.970;-3.168;2024-03-25T15:01:29;12;9;
73565;PMS5003;61846;52.970;-3.168;2024-03-25T15:03:55;8;8;
73565;PMS5003;61846;52.970;-3.168;2024-03-25T15:06:21;10;6;
73565;PMS5003;61846;52.970;-3.168;2024-03-25T15:08:46;16;8;
73565;PMS5003;61846;52.970;-3.168;2024-03-25T15:11:11;6;5;
73565;PMS5003;61846;52.970;-3.168;2024-03-25T15:13:37;6;6;
73565;PMS5003;61846;52.970;-3.168;2024-03-25T15:16:03;10;7;
73565;PMS5003;61846;52.970;-3.168;2024-03-25T15:18:28;10;10;
73565;PMS5003;61846;52.970;-3.168;2024-03-25T15:23:19;10;10;
73565;PMS5003;61846;52.970;-3.168;2024-03-25T15:25:45;11;10;
73565;PMS5003;61846;52.970;-3.168;2024-03-25T15:28:11;22;15;
73565;PMS5003;61846;52.970;-3.168;2024-03-25T15:30:36;31;24;
73565;PMS5003;61846;52.970;-3.168;2024-03-25T15:33:01;68;61;
73565;PMS5003;61846;52.970;-3.168;2024-03-25T15:35:27;37;29;
73565;PMS5003;61846;52.970;-3.168;2024-03-25T15:37:52;35;25;
73565;PMS5003;61846;52.970;-3.168;2024-03-25T15:40:19;23;21;
73565;PMS5003;61846;52.970;-3.168;2024-03-25T15:42:43;25;21;
73565;PMS5003;61846;52.970;-3.168;2024-03-25T15:45:09;19;17;
73565;PMS5003;61846;52.970;-3.168;2024-03-25T15:47:34;31;24;
73565;PMS5003;61846;52.970;-3.168;2024-03-25T15:50:00;14;12;
73565;PMS5003;61846;52.970;-3.168;2024-03-25T15:52:26;12;12;
73565;PMS5003;61846;52.970;-3.168;2024-03-25T15:54:52;16;14;
73565;PMS5003;61846;52.970;-3.168;2024-03-25T15:57:17;36;27;
73565;PMS5003;61846;52.970;-3.168;2024-03-25T15:59:48;39;32;
73565;PMS5003;61846;52.970;-3.168;2024-03-25T16:02:08;25;19;
73565;PMS5003;61846;52.970;-3.168;2024-03-25T16:04:33;19;14;
73565;PMS5003;61846;52.970;-3.168;2024-03-25T16:06:58;21;20;
73565;PMS5003;61846;52.970;-3.168;2024-03-25T16:09:24;31;22;
73565;PMS5003;61846;52.970;-3.168;2024-03-25T16:11:49;20;19;
73565;PMS5003;61846;52.970;-3.168;2024-03-25T16:14:14;14;12;
73565;PMS5003;61846;52.970;-3.168;2024-03-25T16:16:40;14;13;
73565;PMS5003;61846;52.970;-3.168;2024-03-25T16:19:05;23;16;